sensor_id;sensor_type;location;lat;lon;timestamp;pressure;altitude;pressure_sealevel;temperature;humidity
49341;BME280;35209;51.050;13.678;2022-07-21T00:03:26;99957.09;;;23.29;47.18
49341;BME280;35209;51.050;13.678;2022-07-21T00:08:27;99969.13;;;23.55;46.38
49341;BME280;35209;51.050;13.678;2022-07-21T00:13:31;99975.09;;;23.38;46.92
49341;BME280;35209;51.050;13.678;2022-07-21T00:18:33;99978.16;;;23.33;46.61
49341;BME280;35209;51.050;13.678;2022-07-21T00:23:36;99970.47;;;23.50;46.43
49341;BME280;35209;51.050;13.678;2022-07-21T00:28:39;99967.88;;;23.38;46.56
49341;BME280;35209;51.050;13.678;2022-07-21T00:33:41;99957.66;;;23.32;46.46
49341;BME280;35209;51.050;13.678;2022-07-21T00:38:43;99954.59;;;23.37;45.75
49341;BME280;35209;51.050;13.678;2022-07-21T00:43:46;99951.97;;;23.47;45.58
49341;BME280;35209;51.050;13.678;2022-07-21T00:48:49;99948.06;;;23.51;45.40
49341;BME280;35209;51.050;13.678;2022-07-21T00:53:51;99962.72;;;23.47;45.83
49341;BME280;35209;51.050;13.678;2022-07-21T00:58:53;99963.50;;;23.37;45.85
49341;BME280;35209;51.050;13.678;2022-07-21T01:03:56;99958.47;;;23.23;46.43
49341;BME280;35209;51.050;13.678;2022-07-21T01:08:58;100009.22;;;23.15;46.30
49341;BME280;35209;51.050;13.678;2022-07-21T01:14:01;100037.25;;;22.90;46.72
49341;BME280;35209;51.050;13.678;2022-07-21T01:19:05;100001.91;;;23.17;45.69
49341;BME280;35209;51.050;13.678;2022-07-21T01:24:08;100028.16;;;23.55;43.77
49341;BME280;35209;51.050;13.678;2022-07-21T01:29:09;100022.75;;;23.76;42.96
49341;BME280;35209;51.050;13.678;2022-07-21T01:34:13;100016.88;;;23.61;44.08
49341;BME280;35209;51.050;13.678;2022-07-21T01:39:14;100023.22;;;23.60;44.23
49341;BME280;35209;51.050;13.678;2022-07-21T01:44:35;100026.63;;;23.62;44.34
49341;BME280;35209;51.050;13.678;2022-07-21T01:49:36;100034.28;;;23.25;45.36
49341;BME280;35209;51.050;13.678;2022-07-21T01:54:38;100027.22;;;23.24;45.47
49341;BME280;35209;51.050;13.678;2022-07-21T01:59:39;100050.47;;;23.24;45.63
49341;BME280;35209;51.050;13.678;2022-07-21T02:04:41;100052.31;;;23.02;46.13
49341;BME280;35209;51.050;13.678;2022-07-21T02:09:43;100057.69;;;22.80;46.57
49341;BME280;35209;51.050;13.678;2022-07-21T02:14:45;100052.25;;;22.70;47.02
49341;BME280;35209;51.050;13.678;2022-07-21T02:19:46;100039.50;;;22.62;47.69
49341;BME280;35209;51.050;13.678;2022-07-21T02:24:48;100055.38;;;22.32;47.96
49341;BME280;35209;51.050;13.678;2022-07-21T02:29:50;100053.78;;;22.29;48.08
49341;BME280;35209;51.050;13.678;2022-07-21T02:34:51;100059.22;;;22.39;47.56
49341;BME280;35209;51.050;13.678;2022-07-21T02:39:53;100071.50;;;22.53;48.25
49341;BME280;35209;51.050;13.678;2022-07-21T02:44:55;100073.81;;;22.69;48.72
49341;BME280;35209;51.050;13.678;2022-07-21T02:49:56;100081.31;;;22.97;48.79
49341;BME280;35209;51.050;13.678;2022-07-21T02:54:58;100078.81;;;23.16;49.01
49341;BME280;35209;51.050;13.678;2022-07-21T02:59:59;100086.50;;;23.10;49.69
49341;BME280;35209;51.050;13.678;2022-07-21T03:05:02;100100.97;;;23.19;50.35
49341;BME280;35209;51.050;13.678;2022-07-21T03:10:04;100103.84;;;23.59;51.04
49341;BME280;35209;51.050;13.678;2022-07-21T03:15:07;100098.75;;;23.98;50.96
49341;BME280;35209;51.050;13.678;2022-07-21T03:20:09;100096.22;;;23.96;50.96
49341;BME280;35209;51.050;13.678;2022-07-21T03:25:11;100103.31;;;24.07;50.87
49341;BME280;35209;51.050;13.678;2022-07-21T03:30:14;100108.91;;;24.25;51.04
49341;BME280;35209;51.050;13.678;2022-07-21T03:35:16;100104.53;;;24.45;50.21
49341;BME280;35209;51.050;13.678;2022-07-21T03:40:20;100112.59;;;24.24;50.98
49341;BME280;35209;51.050;13.678;2022-07-21T03:45:25;100111.75;;;24.44;50.40
49341;BME280;35209;51.050;13.678;2022-07-21T03:50:28;100112.25;;;24.38;50.43
49341;BME280;35209;51.050;13.678;2022-07-21T03:55:30;100116.13;;;24.24;50.87
49341;BME280;35209;51.050;13.678;2022-07-21T04:00:39;100122.91;;;24.19;51.07
49341;BME280;35209;51.050;13.678;2022-07-21T04:05:42;100128.22;;;24.09;50.95
49341;BME280;35209;51.050;13.678;2022-07-21T04:10:44;100128.97;;;24.21;50.70
49341;BME280;35209;51.050;13.678;2022-07-21T04:15:45;100133.88;;;24.36;50.22
49341;BME280;35209;51.050;13.678;2022-07-21T04:20:47;100145.34;;;24.38;50.04
49341;BME280;35209;51.050;13.678;2022-07-21T04:25:49;100151.72;;;24.16;51.22
49341;BME280;35209;51.050;13.678;2022-07-21T04:30:51;100152.69;;;24.15;50.66
49341;BME280;35209;51.050;13.678;2022-07-21T04:35:53;100154.47;;;24.26;50.54
49341;BME280;35209;51.050;13.678;2022-07-21T04:40:54;100165.50;;;24.33;50.34
49341;BME280;35209;51.050;13.678;2022-07-21T04:45:56;100161.66;;;24.26;50.76
49341;BME280;35209;51.050;13.678;2022-07-21T04:50:58;100162.19;;;24.20;51.09
49341;BME280;35209;51.050;13.678;2022-07-21T04:55:59;100171.53;;;24.25;51.08
49341;BME280;35209;51.050;13.678;2022-07-21T05:01:01;100164.88;;;24.40;50.66
49341;BME280;35209;51.050;13.678;2022-07-21T05:06:03;100151.69;;;24.68;50.55
49341;BME280;35209;51.050;13.678;2022-07-21T05:11:04;100168.88;;;24.96;49.95
49341;BME280;35209;51.050;13.678;2022-07-21T05:16:06;100166.81;;;25.09;49.59
49341;BME280;35209;51.050;13.678;2022-07-21T05:21:08;100174.22;;;25.36;48.59
49341;BME280;35209;51.050;13.678;2022-07-21T05:26:09;100190.13;;;25.59;47.76
49341;BME280;35209;51.050;13.678;2022-07-21T05:31:11;100182.47;;;25.64;47.48
49341;BME280;35209;51.050;13.678;2022-07-21T05:36:13;100169.69;;;25.76;47.03
49341;BME280;35209;51.050;13.678;2022-07-21T05:41:15;100178.78;;;25.84;46.22
49341;BME280;35209;51.050;13.678;2022-07-21T05:46:16;100174.47;;;26.30;45.37
49341;BME280;35209;51.050;13.678;2022-07-21T05:51:18;100180.38;;;26.53;45.17
49341;BME280;35209;51.050;13.678;2022-07-21T05:56:20;100170.56;;;26.89;44.18
49341;BME280;35209;51.050;13.678;2022-07-21T06:01:21;100167.09;;;27.42;42.63
49341;BME280;35209;51.050;13.678;2022-07-21T06:06:23;100162.28;;;28.08;40.76
49341;BME280;35209;51.050;13.678;2022-07-21T06:11:25;100165.47;;;28.03;41.24
49341;BME280;35209;51.050;13.678;2022-07-21T06:16:31;100164.72;;;27.75;40.77
49341;BME280;35209;51.050;13.678;2022-07-21T06:21:33;100170.69;;;28.31;39.11
49341;BME280;35209;51.050;13.678;2022-07-21T06:26:43;100174.50;;;28.38;39.02
49341;BME280;35209;51.050;13.678;2022-07-21T06:31:45;100180.88;;;28.97;38.13
49341;BME280;35209;51.050;13.678;2022-07-21T06:36:46;100183.34;;;29.33;37.47
49341;BME280;35209;51.050;13.678;2022-07-21T06:41:48;100168.34;;;29.79;36.16
49341;BME280;35209;51.050;13.678;2022-07-21T06:46:51;100179.31;;;30.35;34.96
49341;BME280;35209;51.050;13.678;2022-07-21T06:51:52;100178.00;;;30.23;35.37
49341;BME280;35209;51.050;13.678;2022-07-21T06:56:54;100175.97;;;30.25;35.51
49341;BME280;35209;51.050;13.678;2022-07-21T07:01:56;100179.19;;;30.20;35.79
49341;BME280;35209;51.050;13.678;2022-07-21T07:06:59;100169.50;;;30.34;35.34
49341;BME280;35209;51.050;13.678;2022-07-21T07:12:01;100182.56;;;30.14;36.22
49341;BME280;35209;51.050;13.678;2022-07-21T07:17:26;100182.38;;;30.32;36.10
49341;BME280;35209;51.050;13.678;2022-07-21T07:22:28;100188.31;;;30.91;34.07
49341;BME280;35209;51.050;13.678;2022-07-21T07:27:30;100195.91;;;30.48;35.70
49341;BME280;35209;51.050;13.678;2022-07-21T07:32:34;100198.28;;;30.99;34.14
49341;BME280;35209;51.050;13.678;2022-07-21T07:37:38;100198.34;;;31.22;34.05
49341;BME280;35209;51.050;13.678;2022-07-21T07:42:40;100205.63;;;31.29;34.21
49341;BME280;35209;51.050;13.678;2022-07-21T07:47:42;100212.25;;;31.58;32.53
49341;BME280;35209;51.050;13.678;2022-07-21T07:52:44;100202.22;;;31.27;33.38
49341;BME280;35209;51.050;13.678;2022-07-21T07:57:46;100200.03;;;31.23;33.48
49341;BME280;35209;51.050;13.678;2022-07-21T08:02:48;100194.97;;;31.51;32.85
49341;BME280;35209;51.050;13.678;2022-07-21T08:07:51;100204.59;;;31.61;32.73
49341;BME280;35209;51.050;13.678;2022-07-21T08:12:52;100199.81;;;31.86;32.54
49341;BME280;35209;51.050;13.678;2022-07-21T08:17:54;100202.88;;;32.06;32.29
49341;BME280;35209;51.050;13.678;2022-07-21T08:22:55;100206.09;;;32.10;32.01
49341;BME280;35209;51.050;13.678;2022-07-21T08:27:58;100211.25;;;31.74;33.09
49341;BME280;35209;51.050;13.678;2022-07-21T08:33:00;100204.88;;;31.67;32.84
49341;BME280;35209;51.050;13.678;2022-07-21T08:38:06;100203.56;;;31.85;33.25
49341;BME280;35209;51.050;13.678;2022-07-21T08:43:09;100199.66;;;32.40;31.65
49341;BME280;35209;51.050;13.678;2022-07-21T08:48:11;100202.97;;;32.65;31.35
49341;BME280;35209;51.050;13.678;2022-07-21T08:53:13;100204.56;;;32.45;31.91
49341;BME280;35209;51.050;13.678;2022-07-21T08:58:14;100206.44;;;32.07;32.19
49341;BME280;35209;51.050;13.678;2022-07-21T09:03:21;100223.72;;;31.91;32.88
49341;BME280;35209;51.050;13.678;2022-07-21T09:08:47;100214.03;;;32.11;32.61
49341;BME280;35209;51.050;13.678;2022-07-21T09:14:04;100216.50;;;32.59;32.71
49341;BME280;35209;51.050;13.678;2022-07-21T09:19:07;100218.81;;;32.47;32.31
49341;BME280;35209;51.050;13.678;2022-07-21T09:24:19;100207.06;;;33.21;31.19
49341;BME280;35209;51.050;13.678;2022-07-21T09:29:21;100212.94;;;33.39;32.10
49341;BME280;35209;51.050;13.678;2022-07-21T09:34:23;100220.13;;;33.10;32.29
49341;BME280;35209;51.050;13.678;2022-07-21T09:39:48;100215.78;;;33.31;32.34
49341;BME280;35209;51.050;13.678;2022-07-21T09:45:03;100223.22;;;33.80;32.25
49341;BME280;35209;51.050;13.678;2022-07-21T09:50:07;100218.44;;;32.65;33.47
49341;BME280;35209;51.050;13.678;2022-07-21T09:55:28;100208.03;;;32.83;32.85
49341;BME280;35209;51.050;13.678;2022-07-21T10:00:33;100211.06;;;33.25;32.42
49341;BME280;35209;51.050;13.678;2022-07-21T10:05:35;100215.72;;;32.65;32.96
49341;BME280;35209;51.050;13.678;2022-07-21T10:10:37;100210.66;;;32.47;32.99
49341;BME280;35209;51.050;13.678;2022-07-21T10:15:58;100211.66;;;31.94;33.97
49341;BME280;35209;51.050;13.678;2022-07-21T10:21:26;100214.75;;;31.82;33.86
49341;BME280;35209;51.050;13.678;2022-07-21T10:26:31;100213.81;;;31.98;33.82
49341;BME280;35209;51.050;13.678;2022-07-21T10:31:41;100218.13;;;31.93;33.31
49341;BME280;35209;51.050;13.678;2022-07-21T10:36:44;100212.34;;;31.64;33.89
49341;BME280;35209;51.050;13.678;2022-07-21T10:41:49;100209.34;;;30.89;35.43
49341;BME280;35209;51.050;13.678;2022-07-21T11:02:40;100256.06;;;30.60;36.93
49341;BME280;35209;51.050;13.678;2022-07-21T11:13:10;100244.28;;;29.37;39.92
49341;BME280;35209;51.050;13.678;2022-07-21T11:18:21;100255.63;;;29.40;40.40
49341;BME280;35209;51.050;13.678;2022-07-21T11:23:44;100268.59;;;29.63;40.89
49341;BME280;35209;51.050;13.678;2022-07-21T11:28:46;100266.59;;;29.81;40.57
49341;BME280;35209;51.050;13.678;2022-07-21T11:33:48;100262.53;;;29.35;41.19
49341;BME280;35209;51.050;13.678;2022-07-21T11:39:06;100265.94;;;29.37;42.02
49341;BME280;35209;51.050;13.678;2022-07-21T11:44:10;100270.50;;;28.68;43.92
49341;BME280;35209;51.050;13.678;2022-07-21T11:49:12;100277.88;;;27.96;45.32
49341;BME280;35209;51.050;13.678;2022-07-21T11:59:23;100307.59;;;27.51;46.48
49341;BME280;35209;51.050;13.678;2022-07-21T12:04:31;100305.47;;;27.17;47.14
49341;BME280;35209;51.050;13.678;2022-07-21T12:09:34;100295.13;;;27.12;47.47
49341;BME280;35209;51.050;13.678;2022-07-21T12:14:42;100287.19;;;27.38;46.88
49341;BME280;35209;51.050;13.678;2022-07-21T12:19:44;100294.59;;;27.36;46.56
49341;BME280;35209;51.050;13.678;2022-07-21T12:29:51;100296.28;;;26.53;48.91
49341;BME280;35209;51.050;13.678;2022-07-21T12:34:53;100296.16;;;26.35;50.23
49341;BME280;35209;51.050;13.678;2022-07-21T12:40:07;100301.50;;;26.64;48.98
49341;BME280;35209;51.050;13.678;2022-07-21T12:45:14;100294.72;;;26.51;49.87
49341;BME280;35209;51.050;13.678;2022-07-21T12:50:16;100301.53;;;26.35;49.88
49341;BME280;35209;51.050;13.678;2022-07-21T12:55:24;100307.81;;;26.92;48.27
49341;BME280;35209;51.050;13.678;2022-07-21T13:00:26;100303.34;;;27.21;47.01
49341;BME280;35209;51.050;13.678;2022-07-21T13:05:28;100299.94;;;27.46;45.97
49341;BME280;35209;51.050;13.678;2022-07-21T13:10:29;100303.34;;;27.21;46.06
49341;BME280;35209;51.050;13.678;2022-07-21T13:15:31;100297.56;;;27.06;46.30
49341;BME280;35209;51.050;13.678;2022-07-21T13:20:33;100278.16;;;26.92;46.88
49341;BME280;35209;51.050;13.678;2022-07-21T13:25:36;100278.47;;;26.80;46.88
49341;BME280;35209;51.050;13.678;2022-07-21T13:30:37;100248.34;;;26.47;48.25
49341;BME280;35209;51.050;13.678;2022-07-21T13:35:43;100233.31;;;26.45;49.14
49341;BME280;35209;51.050;13.678;2022-07-21T13:40:45;100246.97;;;26.04;52.40
49341;BME280;35209;51.050;13.678;2022-07-21T13:46:07;100258.13;;;25.61;55.09
49341;BME280;35209;51.050;13.678;2022-07-21T13:51:09;100242.50;;;25.45;56.49
49341;BME280;35209;51.050;13.678;2022-07-21T13:56:12;100243.34;;;25.36;58.22
49341;BME280;35209;51.050;13.678;2022-07-21T14:01:14;100265.41;;;25.20;57.62
49341;BME280;35209;51.050;13.678;2022-07-21T14:06:16;100260.44;;;24.85;58.73
49341;BME280;35209;51.050;13.678;2022-07-21T14:11:18;100257.38;;;24.69;59.73
49341;BME280;35209;51.050;13.678;2022-07-21T14:16:21;100277.03;;;24.69;59.38
49341;BME280;35209;51.050;13.678;2022-07-21T14:21:23;100290.44;;;24.59;58.54
49341;BME280;35209;51.050;13.678;2022-07-21T14:26:25;100293.00;;;24.40;58.50
49341;BME280;35209;51.050;13.678;2022-07-21T14:31:27;100275.53;;;24.34;58.21
49341;BME280;35209;51.050;13.678;2022-07-21T14:36:28;100260.03;;;24.38;57.65
49341;BME280;35209;51.050;13.678;2022-07-21T14:41:30;100254.84;;;24.46;57.89
49341;BME280;35209;51.050;13.678;2022-07-21T14:46:32;100273.25;;;24.51;59.88
49341;BME280;35209;51.050;13.678;2022-07-21T14:51:35;100267.19;;;24.49;60.98
49341;BME280;35209;51.050;13.678;2022-07-21T14:56:36;100256.94;;;24.42;58.19
49341;BME280;35209;51.050;13.678;2022-07-21T15:01:58;100251.47;;;24.33;59.66
49341;BME280;35209;51.050;13.678;2022-07-21T15:07:10;100237.19;;;24.32;60.31
49341;BME280;35209;51.050;13.678;2022-07-21T15:12:11;100248.19;;;24.40;59.31
49341;BME280;35209;51.050;13.678;2022-07-21T15:17:13;100237.59;;;24.28;62.14
49341;BME280;35209;51.050;13.678;2022-07-21T15:22:17;100229.91;;;24.02;63.30
49341;BME280;35209;51.050;13.678;2022-07-21T15:27:18;100238.34;;;23.77;65.48
49341;BME280;35209;51.050;13.678;2022-07-21T15:32:22;100230.09;;;23.69;65.12
49341;BME280;35209;51.050;13.678;2022-07-21T15:37:24;100228.59;;;23.76;65.87
49341;BME280;35209;51.050;13.678;2022-07-21T15:42:25;100231.72;;;23.81;64.74
49341;BME280;35209;51.050;13.678;2022-07-21T15:47:29;100234.16;;;23.84;67.71
49341;BME280;35209;51.050;13.678;2022-07-21T15:52:31;100206.34;;;23.85;67.48
49341;BME280;35209;51.050;13.678;2022-07-21T15:57:34;100213.81;;;24.02;67.32
49341;BME280;35209;51.050;13.678;2022-07-21T16:02:40;100207.13;;;24.59;65.86
49341;BME280;35209;51.050;13.678;2022-07-21T16:07:44;100196.22;;;25.51;62.96
49341;BME280;35209;51.050;13.678;2022-07-21T16:12:46;100188.03;;;26.38;58.97
49341;BME280;35209;51.050;13.678;2022-07-21T16:17:48;100185.06;;;27.34;54.31
49341;BME280;35209;51.050;13.678;2022-07-21T16:22:51;100179.50;;;27.71;51.89
49341;BME280;35209;51.050;13.678;2022-07-21T16:27:53;100170.03;;;27.67;51.96
49341;BME280;35209;51.050;13.678;2022-07-21T16:32:55;100154.31;;;28.06;48.19
49341;BME280;35209;51.050;13.678;2022-07-21T16:37:56;100153.50;;;27.88;48.46
49341;BME280;35209;51.050;13.678;2022-07-21T16:42:59;100143.50;;;27.80;47.70
49341;BME280;35209;51.050;13.678;2022-07-21T16:48:02;100132.69;;;27.62;49.15
49341;BME280;35209;51.050;13.678;2022-07-21T16:53:10;100139.47;;;27.49;48.85
49341;BME280;35209;51.050;13.678;2022-07-21T16:58:12;100128.56;;;27.14;50.15
49341;BME280;35209;51.050;13.678;2022-07-21T17:03:14;100118.22;;;27.10;49.10
49341;BME280;35209;51.050;13.678;2022-07-21T17:08:15;100116.88;;;26.69;50.71
49341;BME280;35209;51.050;13.678;2022-07-21T17:13:17;100109.78;;;26.30;53.22
49341;BME280;35209;51.050;13.678;2022-07-21T17:18:19;100108.06;;;26.39;52.26
49341;BME280;35209;51.050;13.678;2022-07-21T17:23:21;100104.63;;;26.47;51.34
49341;BME280;35209;51.050;13.678;2022-07-21T17:28:23;100098.50;;;26.17;52.73
49341;BME280;35209;51.050;13.678;2022-07-21T17:33:26;100095.69;;;26.09;52.96
49341;BME280;35209;51.050;13.678;2022-07-21T17:38:28;100092.94;;;26.19;52.71
49341;BME280;35209;51.050;13.678;2022-07-21T17:43:30;100099.78;;;26.13;53.27
49341;BME280;35209;51.050;13.678;2022-07-21T17:48:32;100097.66;;;26.16;53.04
49341;BME280;35209;51.050;13.678;2022-07-21T17:53:34;100086.03;;;26.06;54.43
49341;BME280;35209;51.050;13.678;2022-07-21T17:58:44;100097.63;;;25.60;56.29
49341;BME280;35209;51.050;13.678;2022-07-21T18:03:47;100096.88;;;25.58;56.80
49341;BME280;35209;51.050;13.678;2022-07-21T18:08:49;100102.56;;;25.45;57.09
49341;BME280;35209;51.050;13.678;2022-07-21T18:13:51;100093.22;;;25.49;56.89
49341;BME280;35209;51.050;13.678;2022-07-21T18:18:53;100094.94;;;25.11;58.50
49341;BME280;35209;51.050;13.678;2022-07-21T18:23:55;100092.31;;;24.90;59.09
49341;BME280;35209;51.050;13.678;2022-07-21T18:28:59;100093.72;;;24.75;60.34
49341;BME280;35209;51.050;13.678;2022-07-21T18:34:00;100101.03;;;24.63;60.89
49341;BME280;35209;51.050;13.678;2022-07-21T18:39:02;100091.34;;;24.41;61.97
49341;BME280;35209;51.050;13.678;2022-07-21T18:44:06;100103.72;;;24.33;62.53
49341;BME280;35209;51.050;13.678;2022-07-21T18:49:08;100112.44;;;24.46;61.64
49341;BME280;35209;51.050;13.678;2022-07-21T18:54:10;100120.88;;;24.11;62.84
49341;BME280;35209;51.050;13.678;2022-07-21T18:59:13;100122.53;;;24.02;64.34
49341;BME280;35209;51.050;13.678;2022-07-21T19:04:15;100119.53;;;23.75;65.27
49341;BME280;35209;51.050;13.678;2022-07-21T19:09:17;100117.09;;;23.72;65.71
49341;BME280;35209;51.050;13.678;2022-07-21T19:14:18;100123.00;;;23.54;66.66
49341;BME280;35209;51.050;13.678;2022-07-21T19:19:20;100132.56;;;23.47;66.67
49341;BME280;35209;51.050;13.678;2022-07-21T19:24:22;100137.88;;;23.26;68.45
49341;BME280;35209;51.050;13.678;2022-07-21T19:29:23;100138.28;;;23.22;68.46
49341;BME280;35209;51.050;13.678;2022-07-21T19:34:25;100138.28;;;23.22;69.19
49341;BME280;35209;51.050;13.678;2022-07-21T19:39:28;100138.31;;;23.42;68.76
49341;BME280;35209;51.050;13.678;2022-07-21T19:44:30;100141.47;;;23.15;69.67
49341;BME280;35209;51.050;13.678;2022-07-21T19:49:32;100138.69;;;22.83;72.21
49341;BME280;35209;51.050;13.678;2022-07-21T19:54:33;100137.28;;;22.68;72.62
49341;BME280;35209;51.050;13.678;2022-07-21T19:59:35;100139.72;;;22.60;74.11
49341;BME280;35209;51.050;13.678;2022-07-21T20:04:37;100143.00;;;22.41;73.89
49341;BME280;35209;51.050;13.678;2022-07-21T20:09:39;100135.22;;;22.38;74.20
49341;BME280;35209;51.050;13.678;2022-07-21T20:14:41;100143.63;;;22.45;74.26
49341;BME280;35209;51.050;13.678;2022-07-21T20:19:43;100142.88;;;22.42;74.86
49341;BME280;35209;51.050;13.678;2022-07-21T20:24:44;100141.19;;;22.41;74.61
49341;BME280;35209;51.050;13.678;2022-07-21T20:29:48;100142.75;;;22.55;73.88
49341;BME280;35209;51.050;13.678;2022-07-21T20:34:50;100140.56;;;22.60;74.29
49341;BME280;35209;51.050;13.678;2022-07-21T20:39:52;100147.75;;;22.37;75.06
49341;BME280;35209;51.050;13.678;2022-07-21T20:45:14;100139.22;;;22.21;75.34
49341;BME280;35209;51.050;13.678;2022-07-21T20:50:15;100149.31;;;22.40;74.52
49341;BME280;35209;51.050;13.678;2022-07-21T20:55:17;100158.56;;;22.25;74.89
49341;BME280;35209;51.050;13.678;2022-07-21T21:00:25;100144.59;;;22.32;74.99
49341;BME280;35209;51.050;13.678;2022-07-21T21:05:27;100146.06;;;22.36;74.91
49341;BME280;35209;51.050;13.678;2022-07-21T21:10:29;100142.44;;;22.02;76.66
49341;BME280;35209;51.050;13.678;2022-07-21T21:15:30;100139.63;;;21.92;77.02
49341;BME280;35209;51.050;13.678;2022-07-21T21:20:40;100151.97;;;22.17;75.93
49341;BME280;35209;51.050;13.678;2022-07-21T21:25:42;100147.56;;;22.05;76.24
49341;BME280;35209;51.050;13.678;2022-07-21T21:30:44;100150.69;;;21.88;77.14
49341;BME280;35209;51.050;13.678;2022-07-21T21:35:46;100151.00;;;21.72;76.95
49341;BME280;35209;51.050;13.678;2022-07-21T21:40:48;100146.91;;;21.79;76.00
49341;BME280;35209;51.050;13.678;2022-07-21T21:45:50;100149.22;;;21.95;68.57
49341;BME280;35209;51.050;13.678;2022-07-21T21:50:51;100141.13;;;22.08;64.38
49341;BME280;35209;51.050;13.678;2022-07-21T21:55:53;100142.22;;;22.05;62.93
49341;BME280;35209;51.050;13.678;2022-07-21T22:00:56;100150.75;;;22.10;62.12
49341;BME280;35209;51.050;13.678;2022-07-21T22:05:58;100143.59;;;22.22;60.86
49341;BME280;35209;51.050;13.678;2022-07-21T22:10:59;100152.97;;;22.39;59.80
49341;BME280;35209;51.050;13.678;2022-07-21T22:16:01;100151.63;;;22.33;59.91
49341;BME280;35209;51.050;13.678;2022-07-21T22:21:03;100164.16;;;22.22;60.33
49341;BME280;35209;51.050;13.678;2022-07-21T22:26:05;100164.78;;;22.14;60.12
49341;BME280;35209;51.050;13.678;2022-07-21T22:31:08;100172.75;;;22.03;60.36
49341;BME280;35209;51.050;13.678;2022-07-21T22:36:10;100172.59;;;22.04;58.68
49341;BME280;35209;51.050;13.678;2022-07-21T22:41:12;100180.59;;;22.17;56.90
49341;BME280;35209;51.050;13.678;2022-07-21T22:46:13;100182.47;;;21.92;57.28
49341;BME280;35209;51.050;13.678;2022-07-21T22:51:15;100184.00;;;21.84;56.31
49341;BME280;35209;51.050;13.678;2022-07-21T22:56:17;100184.59;;;21.76;57.16
49341;BME280;35209;51.050;13.678;2022-07-21T23:01:18;100190.16;;;21.73;58.35
49341;BME280;35209;51.050;13.678;2022-07-21T23:06:20;100189.47;;;21.47;61.03
49341;BME280;35209;51.050;13.678;2022-07-21T23:11:22;100202.91;;;21.22;63.30
49341;BME280;35209;51.050;13.678;2022-07-21T23:16:23;100194.41;;;21.04;65.21
49341;BME280;35209;51.050;13.678;2022-07-21T23:21:25;100190.47;;;20.97;65.96
49341;BME280;35209;51.050;13.678;2022-07-21T23:26:28;100192.97;;;20.87;67.14
49341;BME280;35209;51.050;13.678;2022-07-21T23:31:30;100187.53;;;20.76;67.58
49341;BME280;35209;51.050;13.678;2022-07-21T23:36:31;100192.03;;;20.62;68.54
49341;BME280;35209;51.050;13.678;2022-07-21T23:41:33;100193.66;;;20.52;69.57
49341;BME280;35209;51.050;13.678;2022-07-21T23:46:35;100197.28;;;20.51;70.95
49341;BME280;35209;51.050;13.678;2022-07-21T23:51:36;100207.31;;;20.48;72.58
49341;BME280;35209;51.050;13.678;2022-07-21T23:56:41;100200.38;;;20.32;74.11
